weerbeeld Almere Meer informatie weerbeeld Almere


Onweer radar Meer informatie blitzortung!


Regen radar Meer informatie rain snow radar


Apparatuur in gebruik:

Davis VP2

Meteohub

ALIX 1D

Web-Oke


Het weer levert geen direct gevaar op.    Er zijn geen waarschuwingen afgegeven.

METAR rapporten vliegvelden

   
EHAM - Amsterdam/Schiph, Netherlands
Afstand tot: WZW 42 km
Gewijzigd: 22-06-2018 18:55
Grotendeels bewolkt  
Grotendeels bewolkt  
   Wind: NW 27.8 km/h
Wind: NW 27.8 km/h
Temperatuur: 14°C
Dauwpunt: 8°C
Vochtigheid: 67%
Barometer: 1028 hPa
Bewolking: Mostly Cloudy
Zicht: meer dan 10 km
Bewolking: Licht bewolkt 2400 ft,
Grotendeels bewolkt 4500 ft
EHAM 221655Z 32015KT 290V350 9999 FEW024 BKN045 14/08 Q1028 NOSIG
EHDL - Deelen Rnlafb, Netherlands
Afstand tot: ZO 49 km
Gewijzigd: 22-06-2018 18:55
Bewolking  
Bewolking  
   Wind: NW 16.7 km/h
Wind: NW 16.7 km/h
Temperatuur: 16°C
Dauwpunt: 8°C
Vochtigheid: 59%
Barometer: 1026 hPa
Bewolking: Overcast
Zicht: meer dan 10 km
Bewolking: Grotendeels bewolkt 2500 ft,
Bewolking 5200 ft
EHDL 221655Z AUTO 31009KT 260V010 9999 BKN025 OVC052 16/08 Q1026 BLU
EHKD - De Kooy (navy), Netherlands
Afstand tot: NW 72 km
Gewijzigd: 22-06-2018 18:59
Bewolking  
Bewolking  
   Wind: NW 24.1 km/h
Wind: NW 24.1 km/h
Temperatuur: 13°C
Dauwpunt: 8°C
Vochtigheid: 72%
Barometer: 1027 hPa
Bewolking: Overcast
Zicht: meer dan 10 km
Bewolking: Gedeeltelijk bewolkt 2300 ft,
Grotendeels bewolkt 2700 ft,
Bewolking 3100 ft
EHKD 221659Z AUTO 32013KT 280V350 9999 SCT023 BKN027 OVC031 13/08 Q1027 WHT 31014KT 9999 SCT020 BKN035
EHRD - Rotterdam Airpor, Netherlands
Afstand tot: ZW 80 km
Gewijzigd: 22-06-2018 18:55
Bewolking  
Bewolking  
   Wind: NW 16.7 km/h
Wind: NW 16.7 km/h
Temperatuur: 13°C
Dauwpunt: 9°C
Vochtigheid: 77%
Barometer: 1028 hPa
Bewolking: Overcast
Zicht: meer dan 10 km
Bewolking: Grotendeels bewolkt 2100 ft,
Grotendeels bewolkt 2500 ft,
Bewolking 2800 ft
EHRD 221655Z AUTO 32009KT 270V010 9999 BKN021 BKN025 OVC028 13/09 Q1028 NOSIG
EHVK - Volkel Rnlafb, Netherlands
Afstand tot: ZZO 87 km
Gewijzigd: 22-06-2018 18:55
Grotendeels bewolkt  
Grotendeels bewolkt  
   Wind: WNW 14.8 km/h
Wind: WNW 14.8 km/h
Temperatuur: 15°C
Dauwpunt: 8°C
Vochtigheid: 63%
Barometer: 1027 hPa
Bewolking: Mostly Cloudy
Zicht: meer dan 10 km
Bewolking: Gedeeltelijk bewolkt 2900 ft,
Grotendeels bewolkt 5800 ft
EHVK 221655Z AUTO 30008KT 280V010 9999 SCT029 BKN058 15/08 Q1027 BLU
EHLW - Leeuwarden Rnlaf, Netherlands
Afstand tot: NNO 95 km
Gewijzigd: 22-06-2018 18:55
Bewolking  
Bewolking  
   Wind: NW 25.9 km/h
Wind: NW 25.9 km/h
Temperatuur: 13°C
Dauwpunt: 8°C
Vochtigheid: 72%
Barometer: 1026 hPa
Bewolking: Overcast
Zicht: meer dan 10 km
Bewolking: Licht bewolkt 2400 ft,
Grotendeels bewolkt 3300 ft,
Bewolking 3700 ft
EHLW 221655Z AUTO 32014KT 270V350 9999 FEW024 BKN033 OVC037 13/08 Q1026 BLU

Script ontwikkeld door  Saratoga-weather.org Aangepast voor de template door  Weerstation Leuven

U vindt ons ook hier:

Het Weer Aktueel

UK Metoffice

European Weather Network

Weather Underground

AWEKAS